This is the latest recevied weather packets stored in our database for station/object dl1wer-13. If no packets are shown the sender has not sent any weather packets the latest 1 day(s).
| Time | Temp. | Humidity | Pressure | Rain* | Wind** | Luminosity | Snow |
|---|---|---|---|---|---|---|---|
| 1778089224 | 10.56° C | 83% | 1034.6 hPa | 0 mm | - | - | - |
| 1778088624 | 10.56° C | 83% | 1034.4 hPa | 0 mm | - | - | - |
| 1778088023 | 10.56° C | 84% | 1034.2 hPa | 0 mm | - | - | - |
| 1778086824 | 10.56° C | 84% | 1033.8 hPa | 0 mm | - | - | - |
| 1778084424 | 11.67° C | 84% | 1033.9 hPa | 1.27 mm | - | - | - |
| 1778083823 | 11.67° C | 85% | 1033.9 hPa | 1.27 mm | - | - | - |
| 1778083224 | 11.67° C | 88% | 1033.9 hPa | 1.27 mm | - | - | - |
| 1778082623 | 11.67° C | 88% | 1033.8 hPa | 1.27 mm | - | - | - |
| 1778081424 | 12.22° C | 81% | 1033.6 hPa | 1.27 mm | - | - | - |
| 1778079023 | 17.78° C | 60% | 1031.5 hPa | 0 mm | - | - | - |
| 1778077223 | 16.11° C | 71% | 1031.6 hPa | 0 mm | - | - | - |
| 1778075423 | 16.67° C | 66% | 1032.1 hPa | 0 mm | - | - | - |
| 1778074223 | 17.22° C | 60% | 1031.9 hPa | 0 mm | - | - | - |
| 1778071823 | 18.33° C | 51% | 1031.7 hPa | 0 mm | - | - | - |
| 1778070023 | 17.78° C | 51% | 1031.6 hPa | 0 mm | - | - | - |
| 1778067623 | 17.78° C | 47% | 1031.8 hPa | 0 mm | - | - | - |
| 1778059823 | 17.22° C | 60% | 1032.8 hPa | 0 mm | - | - | - |
| 1778058023 | 16.67° C | 66% | 1032.9 hPa | 0 mm | - | - | - |
| 1778057423 | 15.56° C | 68% | 1033 hPa | 0 mm | - | - | - |
| 1778056822 | 15° C | 70% | 1032.9 hPa | 0 mm | - | - | - |
| 1778056223 | 15° C | 70% | 1033.1 hPa | 0 mm | - | - | - |
| 1778055622 | 15° C | 71% | 1033.1 hPa | 0 mm | - | - | - |
| 1778055022 | 14.44° C | 72% | 1032.9 hPa | 0 mm | - | - | - |
| 1778054422 | 14.44° C | 74% | 1033.1 hPa | 0 mm | - | - | - |
| 1778053823 | 13.89° C | 73% | 1033.1 hPa | 0 mm | - | - | - |
* Rain latest hour (hover to see other rain measurements)
** Current wind speed in m/s (hover to see current wind gust speed)